PBI weather

Palm Beach International Airport
West Palm Beach, Florida, United States

Public forecast

Using degrees Fahrenheit for public forecast. Weather courtesy of forecast.io.

Current aviation weather report (METAR) for Palm Beach International Airport

Retrieved 2020/07/09 15:53 UTC (60 minutes ago):

KPBI 091553Z 25008KT 210V280 10SM SCT031 BKN250 32/23 A2996 RMK AO2 SLP145 T03220233

Aviation forecast (TAF) for Palm Beach International Airport

Retrieved 2020/07/09 12:31 UTC (4 hours ago):

TAF KPBI 091127Z 0912/1012 VRB04KT P6SM FEW030 SCT100 BKN250 FM091700 17008KT P6SM VCTS SCT035CB SCT200 TEMPO 0919/0923 VRB10G15KT 5SM TSRA BKN035CB FM100100 VRB04KT P6SM FEW025 SCT150